Time;durP1;ratioP1;P1;durP2;ratioP2;P2;SDS_P1;SDS_P2;PMS_P1;PMS_P2;Temp;Humidity;BMP_temperature;BMP_pressure;BME280_temperature;BME280_humidity;BME280_pressure;Samples;Min_cycle;Max_cycle;Signal;HPM_P1;HPM_P2
2023/07/16 00:00:58;;;;;;;6.68;1.90;;;17.50;99.90;;;;;;5050762;28;20060;-49
2023/07/16 00:03:23;;;;;;;5.10;1.45;;;17.50;99.90;;;;;;5050828;28;20037;-48
2023/07/16 00:05:51;;;;;;;4.97;1.55;;;17.50;99.90;;;;;;5050591;28;20040;-50
2023/07/16 00:08:16;;;;;;;3.95;1.85;;;17.40;99.90;;;;;;5050269;28;20036;-48
2023/07/16 00:10:42;;;;;;;7.45;2.00;;;17.40;99.90;;;;;;5050728;28;20033;-50
2023/07/16 00:13:07;;;;;;;8.77;1.50;;;17.40;99.90;;;;;;5050035;28;20053;-51
2023/07/16 00:15:33;;;;;;;6.25;1.50;;;17.40;99.90;;;;;;5048200;28;20052;-48
2023/07/16 00:17:58;;;;;;;5.57;1.38;;;17.40;99.90;;;;;;5049898;28;20037;-48
2023/07/16 00:20:24;;;;;;;7.10;2.13;;;17.40;99.90;;;;;;5050355;28;20079;-48
2023/07/16 00:22:50;;;;;;;8.55;1.52;;;17.40;99.90;;;;;;5050376;28;20044;-53
2023/07/16 00:25:16;;;;;;;4.95;1.75;;;17.40;99.90;;;;;;5050155;28;20041;-51
2023/07/16 00:27:42;;;;;;;6.57;1.65;;;17.30;99.90;;;;;;5050306;28;20052;-48
2023/07/16 00:30:08;;;;;;;9.25;1.92;;;17.30;99.90;;;;;;5049494;28;20044;-48
2023/07/16 00:32:33;;;;;;;8.23;2.33;;;17.30;99.90;;;;;;5050244;28;20041;-48
2023/07/16 00:35:00;;;;;;;9.73;2.05;;;17.20;99.90;;;;;;5048556;28;20048;-48
2023/07/16 00:37:26;;;;;;;10.75;1.75;;;17.20;99.90;;;;;;5050390;28;20045;-48
2023/07/16 00:39:51;;;;;;;4.82;1.85;;;17.10;99.90;;;;;;5049415;28;20628;-48
2023/07/16 00:42:17;;;;;;;7.35;2.42;;;17.10;99.90;;;;;;5049595;28;20037;-49
2023/07/16 00:44:42;;;;;;;7.40;2.10;;;17.10;99.90;;;;;;5049137;28;20040;-48
2023/07/16 00:47:09;;;;;;;7.10;2.33;;;17.10;99.90;;;;;;5049201;28;20036;-50
2023/07/16 00:49:35;;;;;;;7.65;1.98;;;17.10;99.90;;;;;;5050083;28;20047;-48
2023/07/16 00:52:01;;;;;;;10.32;2.03;;;17.00;99.90;;;;;;5049374;28;20033;-48
2023/07/16 00:54:29;;;;;;;6.55;2.47;;;17.00;99.90;;;;;;5049071;28;20248;-48
2023/07/16 00:56:55;;;;;;;11.32;2.95;;;17.00;99.90;;;;;;5050117;28;20084;-48
2023/07/16 00:59:21;;;;;;;9.98;2.90;;;16.90;99.90;;;;;;5049374;28;20120;-48
2023/07/16 01:01:47;;;;;;;8.55;3.10;;;16.90;99.90;;;;;;5049608;28;20029;-48
2023/07/16 01:04:12;;;;;;;10.80;3.80;;;16.90;99.90;;;;;;5049849;28;20467;-48
2023/07/16 01:06:41;;;;;;;6.68;3.70;;;16.90;99.90;;;;;;5049915;28;20083;-51
2023/07/16 01:09:16;;;;;;;6.78;3.97;;;16.90;99.90;;;;;;5049270;28;20033;-48
2023/07/16 01:11:43;;;;;;;11.27;4.35;;;16.80;99.90;;;;;;5049188;28;20499;-50
2023/07/16 01:14:10;;;;;;;7.97;3.50;;;16.80;99.90;;;;;;5049259;28;20052;-50
2023/07/16 01:16:36;;;;;;;6.75;4.00;;;16.80;99.90;;;;;;5049755;28;20045;-48
2023/07/16 01:19:02;;;;;;;9.50;3.50;;;16.80;99.90;;;;;;5049152;28;20041;-48
2023/07/16 01:21:37;;;;;;;5.82;3.03;;;16.80;99.90;;;;;;5049619;28;20398;-48
2023/07/16 01:24:36;;;;;;;6.63;3.72;;;16.80;99.90;;;;;;5049507;28;20103;-50
2023/07/16 01:27:28;;;;;;;7.95;3.20;;;16.80;99.90;;;;;;5049670;28;20029;-48
2023/07/16 01:30:00;;;;;;;6.97;2.53;;;16.80;99.90;;;;;;5039372;28;20037;-48
2023/07/16 01:32:26;;;;;;;7.25;2.88;;;16.80;99.90;;;;;;5048824;28;20498;-51
2023/07/16 01:34:53;;;;;;;10.40;4.07;;;16.90;99.90;;;;;;5053822;28;20401;-48
2023/07/16 01:37:18;;;;;;;6.93;3.03;;;16.90;99.90;;;;;;5053309;28;20051;-47
2023/07/16 01:39:44;;;;;;;4.70;2.85;;;16.90;99.90;;;;;;5048848;28;20033;-48
2023/07/16 01:42:10;;;;;;;7.53;3.20;;;16.90;99.90;;;;;;5049333;28;20422;-48
2023/07/16 01:44:36;;;;;;;6.88;2.83;;;16.90;99.90;;;;;;5051809;28;20037;-47
2023/07/16 01:47:30;;;;;;;11.05;2.78;;;16.90;99.90;;;;;;5052836;28;20033;-50
2023/07/16 01:49:56;;;;;;;4.07;1.92;;;16.90;99.90;;;;;;5052769;28;20064;-50
2023/07/16 01:52:21;;;;;;;8.18;2.20;;;16.80;99.90;;;;;;5052989;28;20565;-49
2023/07/16 01:54:47;;;;;;;8.55;2.50;;;16.80;99.90;;;;;;5052466;28;20123;-47
2023/07/16 01:57:13;;;;;;;8.70;2.58;;;16.90;99.90;;;;;;5053233;28;20044;-49
2023/07/16 01:59:39;;;;;;;7.93;2.20;;;16.80;99.90;;;;;;5052573;28;20029;-47
2023/07/16 02:02:05;;;;;;;7.82;2.33;;;16.80;99.90;;;;;;5053280;28;20082;-48
2023/07/16 02:04:30;;;;;;;7.88;2.28;;;16.80;99.90;;;;;;5053079;28;20029;-48
2023/07/16 02:06:56;;;;;;;7.20;2.70;;;16.80;99.90;;;;;;5053042;28;20035;-48
2023/07/16 02:09:22;;;;;;;5.38;2.10;;;16.80;99.90;;;;;;5053048;28;20041;-50
2023/07/16 02:11:47;;;;;;;7.38;2.08;;;16.80;99.90;;;;;;5053344;28;20453;-49
2023/07/16 02:14:14;;;;;;;5.55;1.95;;;16.70;99.90;;;;;;5051297;28;20036;-55
2023/07/16 02:16:40;;;;;;;8.60;2.10;;;16.70;99.90;;;;;;5052780;28;20448;-49
2023/07/16 02:19:05;;;;;;;9.75;2.85;;;16.70;99.90;;;;;;5051009;28;20045;-48
2023/07/16 02:21:31;;;;;;;10.30;2.60;;;16.60;99.90;;;;;;5052715;28;20418;-47
2023/07/16 02:23:57;;;;;;;6.28;2.58;;;16.60;99.90;;;;;;5052294;28;20155;-48
2023/07/16 02:26:22;;;;;;;5.85;1.92;;;16.60;99.90;;;;;;5052341;28;20044;-48
2023/07/16 02:28:48;;;;;;;9.90;2.30;;;16.60;99.90;;;;;;5051862;28;20044;-52
2023/07/16 02:31:13;;;;;;;9.50;2.17;;;16.50;99.90;;;;;;5052910;28;20033;-47
2023/07/16 02:33:39;;;;;;;7.60;2.55;;;16.50;99.90;;;;;;5052060;28;20056;-48
2023/07/16 02:36:06;;;;;;;6.60;2.40;;;16.50;99.90;;;;;;5052154;28;20230;-47
2023/07/16 02:38:31;;;;;;;5.90;2.40;;;16.40;99.90;;;;;;5051735;28;20110;-48
2023/07/16 02:40:57;;;;;;;5.80;1.85;;;16.40;99.90;;;;;;5052439;28;20442;-48
2023/07/16 02:43:22;;;;;;;10.73;2.70;;;16.40;99.90;;;;;;5052032;28;20041;-48
2023/07/16 02:45:48;;;;;;;4.32;2.33;;;16.40;99.90;;;;;;5051705;28;20094;-51
2023/07/16 02:48:14;;;;;;;7.35;3.13;;;16.40;99.90;;;;;;5051990;28;20399;-47
2023/07/16 02:50:39;;;;;;;7.95;3.35;;;16.40;99.90;;;;;;5052100;28;20037;-48
2023/07/16 02:53:06;;;;;;;8.63;2.75;;;16.30;99.90;;;;;;5051853;28;20044;-50
2023/07/16 02:55:32;;;;;;;11.27;3.13;;;16.30;99.90;;;;;;5050141;28;20040;-47
2023/07/16 02:57:58;;;;;;;11.10;3.40;;;16.30;99.90;;;;;;5051163;28;20037;-49
2023/07/16 03:00:23;;;;;;;11.35;3.67;;;16.20;99.90;;;;;;5051177;28;20114;-47
2023/07/16 03:02:49;;;;;;;9.20;2.75;;;16.20;99.90;;;;;;5049539;28;20463;-47
2023/07/16 03:05:18;;;;;;;11.27;3.67;;;16.20;99.90;;;;;;5050566;28;20529;-47
2023/07/16 03:07:44;;;;;;;6.30;3.50;;;16.20;99.90;;;;;;5051609;28;20116;-49
2023/07/16 03:10:10;;;;;;;8.30;3.20;;;16.20;99.90;;;;;;5051648;28;20124;-47
2023/07/16 03:12:35;;;;;;;9.50;2.95;;;16.10;99.90;;;;;;5051367;28;20045;-47
2023/07/16 03:15:01;;;;;;;11.07;2.90;;;16.10;99.90;;;;;;5049488;28;20040;-49
2023/07/16 03:17:26;;;;;;;17.50;3.40;;;16.10;99.90;;;;;;5051785;28;20032;-48
2023/07/16 03:19:52;;;;;;;5.88;2.83;;;16.00;99.90;;;;;;5051224;28;20052;-47
2023/07/16 03:22:17;;;;;;;7.07;4.28;;;16.10;99.90;;;;;;5050142;28;20053;-47
2023/07/16 03:24:43;;;;;;;6.97;3.20;;;16.00;99.90;;;;;;5051155;28;20025;-48
2023/07/16 03:27:09;;;;;;;10.32;3.30;;;16.10;99.90;;;;;;5050679;28;20037;-52
2023/07/16 03:29:34;;;;;;;14.30;3.15;;;16.10;99.90;;;;;;5051373;28;20605;-47
2023/07/16 03:32:00;;;;;;;5.38;2.83;;;16.10;99.90;;;;;;5051866;28;20083;-47
2023/07/16 03:34:25;;;;;;;7.95;2.67;;;16.10;99.90;;;;;;5050530;28;20434;-49
2023/07/16 03:36:51;;;;;;;10.98;2.97;;;16.10;99.90;;;;;;5051025;28;20028;-50
2023/07/16 03:39:17;;;;;;;11.43;3.13;;;16.10;99.90;;;;;;5051214;28;20071;-47
2023/07/16 03:41:42;;;;;;;11.90;4.25;;;16.10;99.90;;;;;;5050382;28;20210;-48
2023/07/16 03:44:08;;;;;;;8.43;3.40;;;16.10;99.90;;;;;;5050804;28;20095;-48
2023/07/16 03:46:34;;;;;;;10.43;3.42;;;16.10;99.90;;;;;;5051146;28;20044;-54
2023/07/16 03:49:00;;;;;;;10.68;3.63;;;16.10;99.90;;;;;;5049865;28;20120;-48
2023/07/16 03:51:25;;;;;;;9.35;3.92;;;16.10;99.90;;;;;;5051256;28;20047;-48
2023/07/16 03:53:51;;;;;;;12.68;3.42;;;16.10;99.90;;;;;;5050886;28;20037;-47
2023/07/16 03:56:16;;;;;;;9.23;3.42;;;16.10;99.90;;;;;;5049995;28;20037;-48
2023/07/16 03:58:43;;;;;;;9.35;3.88;;;16.10;99.90;;;;;;5050702;28;20127;-47
2023/07/16 04:01:09;;;;;;;13.70;3.33;;;16.10;99.90;;;;;;5050929;28;20052;-50
2023/07/16 04:03:34;;;;;;;9.15;3.38;;;16.10;99.90;;;;;;5050978;28;20060;-47
2023/07/16 04:06:05;;;;;;;5.10;3.38;;;16.10;99.90;;;;;;5050198;28;20036;-48
2023/07/16 04:08:31;;;;;;;10.75;3.40;;;16.10;99.90;;;;;;5050730;28;20036;-48
2023/07/16 04:10:56;;;;;;;16.25;4.43;;;16.20;99.90;;;;;;5050289;28;20041;-48
2023/07/16 04:13:22;;;;;;;13.75;3.63;;;16.20;99.90;;;;;;5050520;28;20079;-48
2023/07/16 04:15:47;;;;;;;10.73;3.60;;;16.20;99.90;;;;;;5049846;28;20067;-47
2023/07/16 04:18:13;;;;;;;9.82;2.80;;;16.20;99.90;;;;;;5050366;28;20114;-47
2023/07/16 04:20:38;;;;;;;12.30;3.75;;;16.20;99.90;;;;;;5050049;28;20047;-47
2023/07/16 04:23:04;;;;;;;8.63;3.30;;;16.20;99.90;;;;;;5049998;28;20044;-48
2023/07/16 04:25:30;;;;;;;9.45;3.25;;;16.20;99.90;;;;;;5050138;28;20487;-50
2023/07/16 04:27:56;;;;;;;6.97;3.13;;;16.20;99.90;;;;;;5050255;28;20045;-47
2023/07/16 04:30:21;;;;;;;;;;;16.20;99.90;;;;;;5051293;28;20047;-47
2023/07/16 04:32:47;;;;;;;11.18;3.08;;;16.30;99.90;;;;;;5049985;28;19924;-48
2023/07/16 04:35:12;;;;;;;13.00;2.63;;;16.30;99.90;;;;;;5049308;28;20076;-48
2023/07/16 04:37:38;;;;;;;5.70;2.35;;;16.30;99.90;;;;;;5050140;28;20494;-50
2023/07/16 04:40:04;;;;;;;10.10;3.08;;;16.30;99.90;;;;;;5049172;28;20072;-49
2023/07/16 04:42:30;;;;;;;;;;;16.30;99.90;;;;;;5049620;28;20037;-47
2023/07/16 04:44:55;;;;;;;8.98;3.25;;;16.40;99.90;;;;;;5049381;28;19928;-48
2023/07/16 04:47:21;;;;;;;9.73;3.15;;;16.40;99.90;;;;;;5049850;28;20041;-49
2023/07/16 04:49:46;;;;;;;8.55;3.25;;;16.40;99.90;;;;;;5049630;28;20033;-49
2023/07/16 04:52:13;;;;;;;7.78;2.75;;;16.40;99.90;;;;;;5049308;28;20079;-47
2023/07/16 04:54:38;;;;;;;;;;;16.50;99.90;;;;;;5049329;28;20033;-50
2023/07/16 04:57:06;;;;;;;10.75;3.28;;;16.50;99.90;;;;;;5049809;28;20305;-52
2023/07/16 04:59:31;;;;;;;12.13;3.03;;;16.50;99.90;;;;;;5050136;28;20048;-50
2023/07/16 05:01:57;;;;;;;7.53;2.78;;;16.60;99.90;;;;;;5049755;28;20033;-48
2023/07/16 05:04:22;;;;;;;5.40;2.97;;;16.60;99.90;;;;;;5047791;28;20056;-48
2023/07/16 05:06:48;;;;;;;8.73;3.63;;;16.70;99.90;;;;;;5049606;28;20059;-48
2023/07/16 05:09:14;;;;;;;4.55;2.70;;;16.70;99.90;;;;;;5049219;28;20036;-50
2023/07/16 05:11:39;;;;;;;6.55;2.83;;;16.80;99.90;;;;;;5049211;28;20060;-48
2023/07/16 05:14:05;;;;;;;8.10;3.50;;;16.80;99.90;;;;;;5049373;28;20048;-48
2023/07/16 05:16:30;;;;;;;11.85;3.33;;;16.90;99.90;;;;;;5049186;28;20486;-49
2023/07/16 05:18:56;;;;;;;6.95;2.80;;;16.90;99.90;;;;;;5051668;28;20227;-48
2023/07/16 05:21:22;;;;;;;8.93;3.28;;;17.00;99.90;;;;;;5053621;28;20068;-50
2023/07/16 05:23:47;;;;;;;8.63;2.53;;;17.00;99.90;;;;;;5052780;28;20037;-51
2023/07/16 05:26:13;;;;;;;7.95;3.95;;;17.10;99.90;;;;;;5053671;28;20446;-50
2023/07/16 05:28:38;;;;;;;10.90;3.20;;;17.10;99.90;;;;;;5053952;28;20095;-47
2023/07/16 05:31:04;;;;;;;11.90;3.33;;;17.20;99.90;;;;;;5053626;28;20482;-48
2023/07/16 05:33:30;;;;;;;8.98;3.72;;;17.20;99.90;;;;;;5053633;28;20040;-50
2023/07/16 05:35:55;;;;;;;8.88;3.10;;;17.30;99.90;;;;;;5053152;28;20119;-48
2023/07/16 05:38:21;;;;;;;11.88;3.03;;;17.30;99.90;;;;;;5052676;28;20048;-51
2023/07/16 05:40:47;;;;;;;9.57;3.28;;;17.40;99.90;;;;;;5053271;28;20433;-49
2023/07/16 05:43:14;;;;;;;8.57;3.30;;;17.40;99.90;;;;;;5053101;28;20048;-47
2023/07/16 05:45:40;;;;;;;11.77;4.13;;;17.40;99.90;;;;;;5053232;28;20033;-50
2023/07/16 05:48:05;;;;;;;6.93;2.90;;;17.40;99.90;;;;;;5053441;28;20502;-52
2023/07/16 05:50:31;;;;;;;13.18;3.92;;;17.40;99.90;;;;;;5053788;28;20043;-52
2023/07/16 05:52:57;;;;;;;11.10;3.97;;;17.50;99.90;;;;;;5053390;28;20435;-49
2023/07/16 05:55:22;;;;;;;10.63;3.67;;;17.50;99.90;;;;;;5051819;28;20043;-48
2023/07/16 05:57:48;;;;;;;10.18;4.30;;;17.60;99.90;;;;;;5047277;28;20075;-49
2023/07/16 06:00:14;;;;;;;8.27;4.43;;;17.60;99.90;;;;;;5044776;28;20212;-52
2023/07/16 06:02:39;;;;;;;15.63;4.82;;;17.60;99.90;;;;;;5048611;28;20050;-48
2023/07/16 06:05:06;;;;;;;13.07;5.07;;;17.70;99.90;;;;;;5042714;28;20037;-48
2023/07/16 06:07:31;;;;;;;;;;;17.70;99.90;;;;;;5040046;28;20270;-47
2023/07/16 06:09:58;;;;;;;12.50;4.25;;;17.70;99.90;;;;;;5061829;28;20377;-51
2023/07/16 06:12:23;;;;;;;9.15;3.33;;;17.80;99.90;;;;;;5039009;28;20044;-48
2023/07/16 06:14:49;;;;;;;10.38;3.80;;;17.80;99.90;;;;;;5047178;28;20040;-52
2023/07/16 06:17:14;;;;;;;10.07;3.50;;;17.90;99.90;;;;;;5045341;28;20037;-47
2023/07/16 06:19:40;;;;;;;9.05;3.90;;;17.90;99.90;;;;;;5044105;28;20494;-52
2023/07/16 06:22:07;;;;;;;8.30;3.67;;;17.90;99.90;;;;;;5042773;28;20051;-51
2023/07/16 06:24:32;;;;;;;9.93;4.20;;;17.90;99.90;;;;;;5045430;28;20037;-48
2023/07/16 06:26:58;;;;;;;4.57;2.92;;;18.00;99.90;;;;;;5046174;28;20032;-54
2023/07/16 06:29:24;;;;;;;10.95;4.13;;;18.00;99.90;;;;;;5043818;28;20123;-51
2023/07/16 06:31:57;;;;;;;11.23;3.88;;;18.00;99.90;;;;;;5044055;28;20112;-52
2023/07/16 06:34:23;;;;;;;10.05;3.47;;;18.10;99.90;;;;;;5051381;28;20037;-52
2023/07/16 06:36:49;;;;;;;8.13;3.80;;;18.10;99.90;;;;;;5052005;28;20409;-48
2023/07/16 06:39:14;;;;;;;10.25;4.20;;;18.10;99.90;;;;;;5052216;28;20040;-50
2023/07/16 06:41:40;;;;;;;6.40;3.20;;;18.20;99.90;;;;;;5052301;28;20037;-52
2023/07/16 06:44:05;;;;;;;9.52;3.85;;;18.20;99.90;;;;;;5050681;28;20073;-53
2023/07/16 06:46:31;;;;;;;9.60;3.75;;;18.20;99.90;;;;;;5050617;28;20033;-52
2023/07/16 06:48:57;;;;;;;7.82;4.40;;;18.20;99.90;;;;;;5051828;28;20032;-52
2023/07/16 06:51:22;;;;;;;13.40;4.95;;;18.30;99.90;;;;;;5051952;28;20103;-51
2023/07/16 06:53:48;;;;;;;8.55;3.95;;;18.40;99.90;;;;;;5051724;28;20037;-50
2023/07/16 06:56:14;;;;;;;7.93;3.65;;;18.40;99.90;;;;;;5051272;28;20589;-48
2023/07/16 06:58:39;;;;;;;7.43;4.20;;;18.50;99.90;;;;;;5048767;28;20071;-51
2023/07/16 07:01:05;;;;;;;12.98;3.50;;;18.50;99.90;;;;;;5050539;28;20142;-47
2023/07/16 07:03:33;;;;;;;10.35;4.57;;;18.50;99.90;;;;;;5050264;28;20048;-51
2023/07/16 07:06:01;;;;;;;7.60;3.70;;;18.50;99.90;;;;;;5050685;28;20178;-50
2023/07/16 07:08:26;;;;;;;8.25;4.65;;;18.60;99.90;;;;;;5048628;28;20498;-49
2023/07/16 07:10:52;;;;;;;11.40;4.90;;;18.60;99.90;;;;;;5036969;28;20032;-50
2023/07/16 07:13:18;;;;;;;12.80;4.30;;;18.70;99.90;;;;;;5049862;28;20048;-53
2023/07/16 07:15:43;;;;;;;6.97;3.50;;;18.70;99.90;;;;;;5051245;28;20509;-53
2023/07/16 07:18:09;;;;;;;10.00;4.50;;;18.80;99.90;;;;;;5050841;28;20116;-54
2023/07/16 07:20:35;;;;;;;7.75;3.55;;;18.80;99.90;;;;;;5041175;28;20059;-51
2023/07/16 07:23:02;;;;;;;8.18;3.90;;;18.80;99.90;;;;;;5050991;28;20036;-51
2023/07/16 07:25:28;;;;;;;11.23;3.95;;;18.90;99.90;;;;;;5048560;28;20041;-53
2023/07/16 07:27:54;;;;;;;7.22;4.25;;;18.90;99.90;;;;;;5051296;28;20482;-48
2023/07/16 07:30:20;;;;;;;10.95;3.90;;;18.90;99.90;;;;;;5047032;28;20037;-53
2023/07/16 07:32:45;;;;;;;11.20;4.30;;;19.00;99.90;;;;;;5044520;28;20111;-52
2023/07/16 07:35:11;;;;;;;7.43;3.60;;;19.00;99.90;;;;;;5040078;28;20108;-51
2023/07/16 07:37:37;;;;;;;10.10;3.92;;;19.00;99.90;;;;;;5049901;28;20045;-51
2023/07/16 07:40:03;;;;;;;;;;;19.10;99.90;;;;;;5044596;28;20056;-48
2023/07/16 07:42:29;;;;;;;7.43;3.97;;;19.20;99.90;;;;;;5050400;28;19925;-47
2023/07/16 07:44:55;;;;;;;;;;;19.20;99.90;;;;;;5050989;28;20037;-47
2023/07/16 07:47:20;;;;;;;11.90;3.90;;;19.30;99.90;;;;;;5050841;28;19923;-49
2023/07/16 07:49:46;;;;;;;11.25;4.68;;;19.30;99.90;;;;;;5050591;28;20037;-47
2023/07/16 07:52:12;;;;;;;7.07;3.60;;;19.30;99.90;;;;;;5050918;28;20037;-51
2023/07/16 07:54:37;;;;;;;;;;;19.30;99.90;;;;;;5051038;28;20029;-50
2023/07/16 07:57:04;;;;;;;7.63;4.20;;;19.30;99.90;;;;;;5050498;28;20003;-48
2023/07/16 07:59:30;;;;;;;8.32;3.67;;;19.40;99.90;;;;;;5051352;28;20064;-51
2023/07/16 08:01:58;;;;;;;7.88;3.70;;;19.40;99.90;;;;;;5050326;28;20122;-50
2023/07/16 08:04:24;;;;;;;10.25;4.00;;;19.50;99.90;;;;;;5050537;28;20037;-48
2023/07/16 08:06:50;;;;;;;9.70;3.97;;;19.50;99.90;;;;;;5050338;28;20037;-51
2023/07/16 08:09:16;;;;;;;10.85;4.10;;;19.60;99.90;;;;;;5050718;28;20045;-47
2023/07/16 08:11:42;;;;;;;9.10;4.03;;;19.60;99.90;;;;;;5048334;28;20031;-52
2023/07/16 08:14:07;;;;;;;6.95;3.72;;;19.60;99.90;;;;;;5047903;28;20059;-48
2023/07/16 08:16:33;;;;;;;6.15;3.28;;;19.60;99.90;;;;;;5044399;28;20037;-50
2023/07/16 08:18:58;;;;;;;8.82;3.90;;;19.70;99.90;;;;;;5047412;28;20123;-48
2023/07/16 08:21:24;;;;;;;7.78;3.92;;;19.70;99.90;;;;;;5049868;28;20498;-50
2023/07/16 08:23:49;;;;;;;;;;;19.70;99.90;;;;;;5048516;28;20037;-47
2023/07/16 08:26:16;;;;;;;9.45;4.13;;;19.60;99.90;;;;;;5047617;28;20381;-50
2023/07/16 08:28:42;;;;;;;8.32;3.90;;;19.60;99.90;;;;;;5047096;28;20051;-48
2023/07/16 08:31:07;;;;;;;8.88;3.80;;;19.60;99.90;;;;;;5035544;28;20467;-51
2023/07/16 08:33:33;;;;;;;9.77;4.40;;;19.60;99.90;;;;;;5046346;28;20040;-47
2023/07/16 08:35:58;;;;;;;;;;;19.60;99.90;;;;;;5050645;28;20041;-48
2023/07/16 08:38:24;;;;;;;12.73;3.60;;;19.50;99.90;;;;;;5049731;28;19916;-51
2023/07/16 08:40:50;;;;;;;;;;;19.50;99.90;;;;;;5045115;28;20047;-48
2023/07/16 08:43:16;;;;;;;7.05;3.90;;;19.60;99.90;;;;;;5048040;28;20501;-47
2023/07/16 08:45:44;;;;;;;5.65;3.42;;;19.60;99.90;;;;;;5048226;28;20036;-48
2023/07/16 08:48:10;;;;;;;9.57;4.18;;;19.60;99.90;;;;;;5041486;28;20538;-48
2023/07/16 08:50:36;;;;;;;;;;;19.50;99.90;;;;;;5043277;28;20083;-48
2023/07/16 08:53:05;;;;;;;9.85;4.25;;;19.50;99.90;;;;;;5037604;28;20346;-48
2023/07/16 08:55:32;;;;;;;8.05;4.13;;;19.50;99.90;;;;;;5041924;28;20072;-51
2023/07/16 08:57:58;;;;;;;8.63;3.50;;;19.40;99.90;;;;;;5040245;28;21122;-48
2023/07/16 09:00:26;;;;;;;7.18;3.58;;;19.40;99.90;;;;;;5046642;28;20037;-48
2023/07/16 09:02:55;;;;;;;10.65;4.20;;;19.30;99.90;;;;;;5036728;28;20509;-48
2023/07/16 09:05:21;;;;;;;8.68;4.88;;;19.30;99.90;;;;;;5035992;28;20099;-48
2023/07/16 09:07:47;;;;;;;5.40;3.70;;;19.30;99.90;;;;;;5048730;28;20033;-49
2023/07/16 09:10:13;;;;;;;6.90;3.63;;;19.30;99.90;;;;;;5044176;28;20029;-51
2023/07/16 09:12:57;;;;;;;;;;;19.40;99.90;;;;;;5041613;28;20033;-48
2023/07/16 09:15:23;;;;;;;11.45;4.65;;;19.60;99.90;;;;;;5038656;28;20298;-51
2023/07/16 09:17:49;;;;;;;9.75;3.55;;;19.70;99.90;;;;;;5044030;28;20044;-48
2023/07/16 09:20:16;;;;;;;9.77;5.00;;;19.90;99.90;;;;;;5049243;28;20489;-50
2023/07/16 09:22:42;;;;;;;11.45;4.80;;;19.90;99.90;;;;;;5045604;28;20045;-50
2023/07/16 09:25:08;;;;;;;10.25;4.82;;;19.90;99.90;;;;;;5044127;28;20112;-50
2023/07/16 09:27:33;;;;;;;13.20;4.53;;;20.00;99.90;;;;;;5040190;28;20456;-49
2023/07/16 09:30:02;;;;;;;8.23;4.55;;;20.10;99.90;;;;;;5046085;28;20074;-53
2023/07/16 09:32:34;;;;;;;8.93;4.38;;;20.10;99.90;;;;;;5034779;28;20045;-50
2023/07/16 09:35:00;;;;;;;9.18;4.05;;;20.10;99.90;;;;;;5045088;28;20064;-51
2023/07/16 09:37:27;;;;;;;7.53;4.60;;;20.00;99.90;;;;;;5046791;28;20076;-51
2023/07/16 09:39:53;;;;;;;8.43;4.25;;;20.00;99.90;;;;;;5046443;28;20108;-50
2023/07/16 09:42:20;;;;;;;14.00;4.40;;;20.00;99.90;;;;;;5041050;28;20072;-50
2023/07/16 09:44:46;;;;;;;7.15;3.72;;;19.90;99.90;;;;;;5040852;28;20103;-51
2023/07/16 09:47:12;;;;;;;9.25;4.65;;;19.80;99.90;;;;;;5042216;28;20037;-52
2023/07/16 09:49:38;;;;;;;8.85;4.30;;;19.70;99.90;;;;;;5047106;28;20375;-50
2023/07/16 09:52:05;;;;;;;10.80;5.03;;;19.60;99.90;;;;;;5039461;28;20078;-53
2023/07/16 09:54:37;;;;;;;10.95;4.65;;;19.70;99.90;;;;;;5045190;28;20037;-50
2023/07/16 09:57:05;;;;;;;9.07;5.32;;;19.70;99.90;;;;;;5039891;28;20048;-50
2023/07/16 09:59:32;;;;;;;10.88;4.07;;;19.90;99.90;;;;;;5047375;28;20041;-50
2023/07/16 10:01:58;;;;;;;10.43;5.40;;;20.10;99.90;;;;;;5049500;28;20048;-50
2023/07/16 10:04:24;;;;;;;6.60;5.35;;;20.30;99.90;;;;;;5049863;28;20034;-50
2023/07/16 10:06:57;;;;;;;;;;;20.50;99.90;;;;;;5053602;28;20593;-51
2023/07/16 10:09:39;;;;;;;8.95;4.65;;;20.60;99.90;;;;;;5052593;28;19921;-50
2023/07/16 10:12:15;;;;;;;9.38;4.35;;;20.70;99.90;;;;;;5053465;28;20037;-50
2023/07/16 10:14:44;;;;;;;8.35;4.00;;;20.70;99.90;;;;;;5052482;28;20108;-51
2023/07/16 10:17:21;;;;;;;8.35;4.13;;;20.60;99.90;;;;;;5053475;28;20044;-50
2023/07/16 10:20:01;;;;;;;8.45;3.92;;;20.40;99.90;;;;;;5052290;28;20676;-50
2023/07/16 10:22:46;;;;;;;12.48;4.93;;;20.30;99.90;;;;;;5052880;28;20405;-49
2023/07/16 10:25:17;;;;;;;10.75;4.07;;;20.20;99.90;;;;;;5052397;28;20082;-50
2023/07/16 10:27:47;;;;;;;13.23;4.95;;;20.20;99.90;;;;;;5052634;28;20112;-52
2023/07/16 10:30:13;;;;;;;9.30;4.72;;;20.00;99.90;;;;;;5050137;28;20072;-50
2023/07/16 10:32:39;;;;;;;5.95;4.03;;;19.90;99.90;;;;;;5041309;28;20087;-49
2023/07/16 10:35:05;;;;;;;;;;;19.90;99.90;;;;;;5047303;28;20098;-50
2023/07/16 10:37:32;;;;;;;7.50;4.33;;;19.80;99.90;;;;;;5045950;28;20016;-50
2023/07/16 10:39:58;;;;;;;;;;;19.70;99.90;;;;;;5046342;28;20299;-50
2023/07/16 10:42:26;;;;;;;8.93;4.50;;;19.70;99.90;;;;;;5048223;28;20400;-55
2023/07/16 10:45:00;;;;;;;11.50;4.65;;;19.70;99.90;;;;;;5039529;28;20029;-50
2023/07/16 10:47:34;;;;;;;8.27;4.10;;;19.70;99.90;;;;;;5046199;28;20036;-51
2023/07/16 10:50:02;;;;;;;8.50;4.60;;;19.70;99.90;;;;;;5048756;28;20033;-50
2023/07/16 10:52:28;;;;;;;8.52;4.63;;;19.80;99.90;;;;;;5051908;28;20040;-51
2023/07/16 10:54:54;;;;;;;15.82;5.85;;;19.90;99.90;;;;;;5043413;28;20021;-50
2023/07/16 10:57:24;;;;;;;10.25;4.38;;;19.90;99.90;;;;;;5052227;28;20044;-50
2023/07/16 10:59:51;;;;;;;8.07;3.92;;;20.00;99.90;;;;;;5052211;28;20112;-50
2023/07/16 11:02:18;;;;;;;9.60;4.07;;;20.10;99.90;;;;;;5043631;28;20041;-52
2023/07/16 11:04:45;;;;;;;11.40;4.15;;;20.10;99.90;;;;;;5050961;28;20095;-52
2023/07/16 11:07:12;;;;;;;16.95;4.70;;;20.20;99.90;;;;;;5047368;28;20037;-51
2023/07/16 11:09:50;;;;;;;6.18;3.75;;;20.30;99.90;;;;;;5049816;28;20037;-50
2023/07/16 11:12:18;;;;;;;7.25;4.18;;;20.40;99.90;;;;;;5039161;28;20048;-53
2023/07/16 11:14:47;;;;;;;10.38;5.25;;;20.50;99.90;;;;;;5049473;28;20041;-51
2023/07/16 11:17:13;;;;;;;10.43;4.78;;;20.50;99.90;;;;;;5044891;28;20037;-53
2023/07/16 11:19:39;;;;;;;;;;;20.50;99.90;;;;;;5046732;28;20029;-52
2023/07/16 11:22:06;;;;;;;9.63;5.13;;;20.40;99.90;;;;;;5050038;28;20035;-50
2023/07/16 11:24:46;;;;;;;10.98;4.30;;;20.30;99.90;;;;;;5047410;28;20029;-53
2023/07/16 11:27:19;;;;;;;8.48;5.20;;;20.20;99.90;;;;;;5038608;28;20049;-49
2023/07/16 11:29:50;;;;;;;8.35;4.32;;;20.20;99.90;;;;;;5042737;28;20041;-53
2023/07/16 11:32:34;;;;;;;7.13;3.95;;;20.30;99.90;;;;;;5049973;28;20032;-50
2023/07/16 11:35:02;;;;;;;10.00;4.32;;;20.60;99.90;;;;;;5050936;28;20387;-55
2023/07/16 11:37:30;;;;;;;11.15;4.20;;;20.80;99.90;;;;;;5039902;28;20037;-54
2023/07/16 11:40:07;;;;;;;8.68;4.40;;;21.00;99.90;;;;;;5043294;28;20410;-56
2023/07/16 11:42:36;;;;;;;10.60;4.47;;;21.00;99.90;;;;;;5046355;28;20045;-50
2023/07/16 11:45:03;;;;;;;7.60;4.15;;;21.00;99.90;;;;;;5049430;28;20402;-50
2023/07/16 11:47:29;;;;;;;6.00;4.13;;;20.90;99.90;;;;;;5050804;28;20033;-54
2023/07/16 11:49:57;;;;;;;;;;;20.80;99.90;;;;;;5051661;28;20037;-50
2023/07/16 11:52:27;;;;;;;9.10;4.88;;;20.60;99.90;;;;;;5058598;28;19917;-51
2023/07/16 11:54:54;;;;;;;8.15;3.83;;;20.50;99.90;;;;;;5044052;28;20255;-50
2023/07/16 11:57:19;;;;;;;7.25;4.47;;;20.40;99.90;;;;;;5046747;28;20386;-53
2023/07/16 11:59:45;;;;;;;6.97;4.20;;;20.30;99.90;;;;;;5048459;28;20036;-53
2023/07/16 12:02:11;;;;;;;;;;;20.20;99.90;;;;;;5050492;28;20033;-55
2023/07/16 12:04:37;;;;;;;10.98;4.60;;;20.20;99.90;;;;;;5055875;28;19971;-50
2023/07/16 12:07:02;;;;;;;10.25;4.88;;;20.20;99.90;;;;;;5047561;28;20086;-50
2023/07/16 12:09:28;;;;;;;;;;;20.30;99.90;;;;;;5050901;28;20036;-52
2023/07/16 12:11:54;;;;;;;7.63;4.45;;;20.30;99.90;;;;;;5047325;28;20355;-52
2023/07/16 12:14:19;;;;;;;;;;;20.20;99.90;;;;;;5048683;28;20628;-52
2023/07/16 12:16:45;;;;;;;7.70;4.18;;;20.20;99.90;;;;;;5041017;28;20050;-50
2023/07/16 12:19:10;;;;;;;;;;;20.20;99.90;;;;;;5041831;28;20037;-52
2023/07/16 12:21:36;;;;;;;5.70;3.90;;;20.20;99.90;;;;;;5042532;28;19917;-50
2023/07/16 12:24:02;;;;;;;9.65;4.72;;;20.20;99.90;;;;;;5044333;28;20040;-50
2023/07/16 12:26:28;;;;;;;;;;;20.30;99.90;;;;;;5049333;28;20041;-51
2023/07/16 12:28:53;;;;;;;8.40;4.55;;;20.30;99.90;;;;;;5044546;28;19932;-52
2023/07/16 12:31:20;;;;;;;6.03;3.60;;;20.40;99.90;;;;;;5048814;28;20045;-50
2023/07/16 12:33:46;;;;;;;8.15;3.50;;;20.50;99.90;;;;;;5049176;28;20403;-53
2023/07/16 12:36:12;;;;;;;;;;;20.70;99.90;;;;;;5045567;28;20043;-54
2023/07/16 12:38:37;;;;;;;8.70;3.95;;;20.80;99.90;;;;;;5043149;28;19924;-51
2023/07/16 12:41:03;;;;;;;;;;;20.90;99.90;;;;;;5047065;28;20207;-50
2023/07/16 12:43:29;;;;;;;8.63;3.72;;;21.10;99.90;;;;;;5042842;28;19924;-50
2023/07/16 12:45:54;;;;;;;;;;;21.30;99.90;;;;;;5044582;28;20069;-50
2023/07/16 12:48:20;;;;;;;7.30;2.83;;;21.40;99.60;;;;;;5043948;28;19928;-50